sensor_id;sensor_type;location;lat;lon;timestamp;P1;durP1;ratioP1;P2;durP2;ratioP2
19842;SDS011;10082;51.038;6.992;2022-12-18T00:02:25;10.97;;;9.97;;
19842;SDS011;10082;51.038;6.992;2022-12-18T00:04:54;10.50;;;9.60;;
19842;SDS011;10082;51.038;6.992;2022-12-18T00:07:21;11.00;;;9.93;;
19842;SDS011;10082;51.038;6.992;2022-12-18T00:09:48;10.80;;;9.80;;
19842;SDS011;10082;51.038;6.992;2022-12-18T00:12:15;10.83;;;9.83;;
19842;SDS011;10082;51.038;6.992;2022-12-18T00:14:41;10.20;;;9.30;;
19842;SDS011;10082;51.038;6.992;2022-12-18T00:17:10;10.50;;;9.60;;
19842;SDS011;10082;51.038;6.992;2022-12-18T00:19:38;10.70;;;9.70;;
19842;SDS011;10082;51.038;6.992;2022-12-18T00:22:06;10.43;;;9.50;;
19842;SDS011;10082;51.038;6.992;2022-12-18T00:24:33;10.47;;;9.47;;
19842;SDS011;10082;51.038;6.992;2022-12-18T00:27:00;11.03;;;10.03;;
19842;SDS011;10082;51.038;6.992;2022-12-18T00:29:27;10.53;;;9.53;;
19842;SDS011;10082;51.038;6.992;2022-12-18T00:31:54;9.97;;;9.07;;
19842;SDS011;10082;51.038;6.992;2022-12-18T00:34:22;10.57;;;9.60;;
19842;SDS011;10082;51.038;6.992;2022-12-18T00:36:51;9.97;;;9.07;;
19842;SDS011;10082;51.038;6.992;2022-12-18T00:39:19;9.53;;;8.67;;
19842;SDS011;10082;51.038;6.992;2022-12-18T00:41:46;9.53;;;8.63;;
19842;SDS011;10082;51.038;6.992;2022-12-18T00:44:31;10.50;;;9.50;;
19842;SDS011;10082;51.038;6.992;2022-12-18T00:46:58;9.30;;;8.40;;
19842;SDS011;10082;51.038;6.992;2022-12-18T00:49:25;9.57;;;8.67;;
19842;SDS011;10082;51.038;6.992;2022-12-18T00:51:52;8.90;;;8.10;;
19842;SDS011;10082;51.038;6.992;2022-12-18T00:54:21;10.37;;;9.47;;
19842;SDS011;10082;51.038;6.992;2022-12-18T00:56:49;9.77;;;8.80;;
19842;SDS011;10082;51.038;6.992;2022-12-18T00:59:16;9.90;;;9.00;;
19842;SDS011;10082;51.038;6.992;2022-12-18T01:01:44;10.13;;;9.13;;
19842;SDS011;10082;51.038;6.992;2022-12-18T01:04:11;10.53;;;9.60;;
19842;SDS011;10082;51.038;6.992;2022-12-18T01:06:38;11.10;;;10.00;;
19842;SDS011;10082;51.038;6.992;2022-12-18T01:09:06;10.37;;;9.37;;
19842;SDS011;10082;51.038;6.992;2022-12-18T01:11:37;10.20;;;9.20;;
19842;SDS011;10082;51.038;6.992;2022-12-18T01:14:04;9.60;;;8.70;;
19842;SDS011;10082;51.038;6.992;2022-12-18T01:16:31;10.43;;;9.43;;
19842;SDS011;10082;51.038;6.992;2022-12-18T01:18:58;9.70;;;8.77;;
19842;SDS011;10082;51.038;6.992;2022-12-18T01:21:32;9.57;;;8.77;;
19842;SDS011;10082;51.038;6.992;2022-12-18T01:24:02;8.73;;;8.03;;
19842;SDS011;10082;51.038;6.992;2022-12-18T01:26:30;9.37;;;8.57;;
19842;SDS011;10082;51.038;6.992;2022-12-18T01:28:59;10.17;;;9.17;;
19842;SDS011;10082;51.038;6.992;2022-12-18T01:31:26;9.37;;;8.47;;
19842;SDS011;10082;51.038;6.992;2022-12-18T01:33:56;9.43;;;8.53;;
19842;SDS011;10082;51.038;6.992;2022-12-18T01:36:24;9.47;;;8.67;;
19842;SDS011;10082;51.038;6.992;2022-12-18T01:38:52;9.90;;;9.00;;
19842;SDS011;10082;51.038;6.992;2022-12-18T01:41:20;10.07;;;9.07;;
19842;SDS011;10082;51.038;6.992;2022-12-18T01:43:51;9.57;;;8.77;;
19842;SDS011;10082;51.038;6.992;2022-12-18T01:46:22;9.87;;;8.97;;
19842;SDS011;10082;51.038;6.992;2022-12-18T01:48:51;10.07;;;9.17;;
19842;SDS011;10082;51.038;6.992;2022-12-18T01:51:21;9.17;;;8.27;;
19842;SDS011;10082;51.038;6.992;2022-12-18T01:53:49;9.83;;;8.83;;
19842;SDS011;10082;51.038;6.992;2022-12-18T01:56:17;9.73;;;8.83;;
19842;SDS011;10082;51.038;6.992;2022-12-18T01:58:46;10.20;;;9.20;;
19842;SDS011;10082;51.038;6.992;2022-12-18T02:01:21;9.70;;;8.80;;
19842;SDS011;10082;51.038;6.992;2022-12-18T02:03:49;10.27;;;9.27;;
19842;SDS011;10082;51.038;6.992;2022-12-18T02:06:18;9.30;;;8.50;;
19842;SDS011;10082;51.038;6.992;2022-12-18T02:09:02;10.13;;;9.23;;
19842;SDS011;10082;51.038;6.992;2022-12-18T02:11:39;9.87;;;8.97;;
19842;SDS011;10082;51.038;6.992;2022-12-18T02:14:16;10.43;;;9.43;;
19842;SDS011;10082;51.038;6.992;2022-12-18T02:16:56;10.10;;;9.20;;
19842;SDS011;10082;51.038;6.992;2022-12-18T02:19:37;9.70;;;8.80;;
19842;SDS011;10082;51.038;6.992;2022-12-18T02:25:00;9.70;;;8.80;;
19842;SDS011;10082;51.038;6.992;2022-12-18T02:27:37;9.70;;;8.70;;
19842;SDS011;10082;51.038;6.992;2022-12-18T02:30:06;9.90;;;8.93;;
19842;SDS011;10082;51.038;6.992;2022-12-18T02:32:35;9.93;;;9.03;;
19842;SDS011;10082;51.038;6.992;2022-12-18T02:35:06;9.27;;;8.43;;
19842;SDS011;10082;51.038;6.992;2022-12-18T02:37:39;9.60;;;8.80;;
19842;SDS011;10082;51.038;6.992;2022-12-18T02:40:09;9.20;;;8.40;;
19842;SDS011;10082;51.038;6.992;2022-12-18T02:42:39;10.13;;;9.23;;
19842;SDS011;10082;51.038;6.992;2022-12-18T02:45:08;9.80;;;8.83;;
19842;SDS011;10082;51.038;6.992;2022-12-18T02:47:36;10.17;;;9.27;;
19842;SDS011;10082;51.038;6.992;2022-12-18T02:50:07;9.53;;;8.63;;
19842;SDS011;10082;51.038;6.992;2022-12-18T02:52:45;10.47;;;9.47;;
19842;SDS011;10082;51.038;6.992;2022-12-18T02:55:25;10.20;;;9.20;;
19842;SDS011;10082;51.038;6.992;2022-12-18T02:58:08;10.00;;;9.10;;
19842;SDS011;10082;51.038;6.992;2022-12-18T03:00:47;10.40;;;9.37;;
19842;SDS011;10082;51.038;6.992;2022-12-18T03:03:21;10.33;;;9.37;;
19842;SDS011;10082;51.038;6.992;2022-12-18T03:05:56;11.10;;;10.03;;
19842;SDS011;10082;51.038;6.992;2022-12-18T03:08:28;10.50;;;9.50;;
19842;SDS011;10082;51.038;6.992;2022-12-18T03:10:59;11.63;;;10.50;;
19842;SDS011;10082;51.038;6.992;2022-12-18T03:13:32;11.07;;;10.07;;
19842;SDS011;10082;51.038;6.992;2022-12-18T03:16:03;11.57;;;10.40;;
19842;SDS011;10082;51.038;6.992;2022-12-18T03:18:35;10.90;;;9.80;;
19842;SDS011;10082;51.038;6.992;2022-12-18T03:21:06;10.20;;;9.30;;
19842;SDS011;10082;51.038;6.992;2022-12-18T03:23:39;10.47;;;9.57;;
19842;SDS011;10082;51.038;6.992;2022-12-18T03:26:10;11.13;;;10.13;;
19842;SDS011;10082;51.038;6.992;2022-12-18T03:28:44;10.67;;;9.77;;
19842;SDS011;10082;51.038;6.992;2022-12-18T03:31:14;11.03;;;10.00;;
19842;SDS011;10082;51.038;6.992;2022-12-18T03:33:43;10.93;;;9.97;;
19842;SDS011;10082;51.038;6.992;2022-12-18T03:36:17;10.90;;;9.90;;
19842;SDS011;10082;51.038;6.992;2022-12-18T03:38:44;11.37;;;10.30;;
19842;SDS011;10082;51.038;6.992;2022-12-18T03:41:14;11.60;;;10.50;;
19842;SDS011;10082;51.038;6.992;2022-12-18T03:44:09;11.40;;;10.20;;
19842;SDS011;10082;51.038;6.992;2022-12-18T03:46:45;11.23;;;10.13;;
19842;SDS011;10082;51.038;6.992;2022-12-18T03:49:18;10.87;;;9.87;;
19842;SDS011;10082;51.038;6.992;2022-12-18T03:51:54;12.17;;;11.07;;
19842;SDS011;10082;51.038;6.992;2022-12-18T03:54:29;11.33;;;10.23;;
19842;SDS011;10082;51.038;6.992;2022-12-18T03:57:07;11.33;;;10.20;;
19842;SDS011;10082;51.038;6.992;2022-12-18T03:59:40;11.00;;;10.00;;
19842;SDS011;10082;51.038;6.992;2022-12-18T04:02:11;11.20;;;10.20;;
19842;SDS011;10082;51.038;6.992;2022-12-18T04:04:42;11.20;;;10.10;;
19842;SDS011;10082;51.038;6.992;2022-12-18T04:07:11;11.53;;;10.53;;
19842;SDS011;10082;51.038;6.992;2022-12-18T04:09:40;11.80;;;10.70;;
19842;SDS011;10082;51.038;6.992;2022-12-18T04:12:12;11.73;;;10.63;;
19842;SDS011;10082;51.038;6.992;2022-12-18T04:14:40;11.07;;;10.07;;
19842;SDS011;10082;51.038;6.992;2022-12-18T04:17:08;10.87;;;9.77;;
19842;SDS011;10082;51.038;6.992;2022-12-18T04:19:35;11.10;;;10.10;;
19842;SDS011;10082;51.038;6.992;2022-12-18T04:22:03;11.10;;;10.10;;
19842;SDS011;10082;51.038;6.992;2022-12-18T04:24:36;10.53;;;9.63;;
19842;SDS011;10082;51.038;6.992;2022-12-18T04:27:12;10.73;;;9.73;;
19842;SDS011;10082;51.038;6.992;2022-12-18T04:29:46;10.77;;;9.77;;
19842;SDS011;10082;51.038;6.992;2022-12-18T04:32:14;11.27;;;10.27;;
19842;SDS011;10082;51.038;6.992;2022-12-18T04:34:43;10.23;;;9.33;;
19842;SDS011;10082;51.038;6.992;2022-12-18T04:37:10;11.13;;;10.03;;
19842;SDS011;10082;51.038;6.992;2022-12-18T04:39:38;11.20;;;10.20;;
19842;SDS011;10082;51.038;6.992;2022-12-18T04:42:11;10.93;;;9.93;;
19842;SDS011;10082;51.038;6.992;2022-12-18T04:44:38;10.30;;;9.30;;
19842;SDS011;10082;51.038;6.992;2022-12-18T04:47:06;10.53;;;9.63;;
19842;SDS011;10082;51.038;6.992;2022-12-18T04:49:33;10.30;;;9.40;;
19842;SDS011;10082;51.038;6.992;2022-12-18T04:52:01;10.33;;;9.33;;
19842;SDS011;10082;51.038;6.992;2022-12-18T04:54:27;9.93;;;9.03;;
19842;SDS011;10082;51.038;6.992;2022-12-18T04:56:55;10.00;;;9.20;;
19842;SDS011;10082;51.038;6.992;2022-12-18T04:59:21;9.83;;;9.03;;
19842;SDS011;10082;51.038;6.992;2022-12-18T05:01:49;9.97;;;9.07;;
19842;SDS011;10082;51.038;6.992;2022-12-18T05:04:18;10.10;;;9.20;;
19842;SDS011;10082;51.038;6.992;2022-12-18T05:06:45;9.57;;;8.70;;
19842;SDS011;10082;51.038;6.992;2022-12-18T05:09:12;9.40;;;8.50;;
19842;SDS011;10082;51.038;6.992;2022-12-18T05:11:42;9.80;;;8.93;;
19842;SDS011;10082;51.038;6.992;2022-12-18T05:14:10;10.03;;;9.13;;
19842;SDS011;10082;51.038;6.992;2022-12-18T05:16:37;9.03;;;8.23;;
19842;SDS011;10082;51.038;6.992;2022-12-18T05:19:04;9.33;;;8.53;;
19842;SDS011;10082;51.038;6.992;2022-12-18T05:21:33;9.57;;;8.67;;
19842;SDS011;10082;51.038;6.992;2022-12-18T05:24:00;8.80;;;8.00;;
19842;SDS011;10082;51.038;6.992;2022-12-18T05:26:27;9.33;;;8.43;;
19842;SDS011;10082;51.038;6.992;2022-12-18T05:28:54;8.83;;;8.03;;
19842;SDS011;10082;51.038;6.992;2022-12-18T05:31:21;9.37;;;8.43;;
19842;SDS011;10082;51.038;6.992;2022-12-18T05:33:48;9.17;;;8.37;;
19842;SDS011;10082;51.038;6.992;2022-12-18T05:36:16;8.93;;;8.23;;
19842;SDS011;10082;51.038;6.992;2022-12-18T05:38:44;9.20;;;8.40;;
19842;SDS011;10082;51.038;6.992;2022-12-18T05:41:11;8.97;;;8.20;;
19842;SDS011;10082;51.038;6.992;2022-12-18T05:43:38;8.77;;;8.07;;
19842;SDS011;10082;51.038;6.992;2022-12-18T05:46:07;9.20;;;8.30;;
19842;SDS011;10082;51.038;6.992;2022-12-18T05:48:38;9.50;;;8.60;;
19842;SDS011;10082;51.038;6.992;2022-12-18T05:51:05;10.10;;;9.10;;
19842;SDS011;10082;51.038;6.992;2022-12-18T05:53:33;8.87;;;8.10;;
19842;SDS011;10082;51.038;6.992;2022-12-18T05:56:04;9.50;;;8.70;;
19842;SDS011;10082;51.038;6.992;2022-12-18T05:58:32;9.47;;;8.63;;
19842;SDS011;10082;51.038;6.992;2022-12-18T06:01:05;10.27;;;9.30;;
19842;SDS011;10082;51.038;6.992;2022-12-18T06:03:35;9.67;;;8.77;;
19842;SDS011;10082;51.038;6.992;2022-12-18T06:06:02;9.63;;;8.80;;
19842;SDS011;10082;51.038;6.992;2022-12-18T06:08:29;9.33;;;8.53;;
19842;SDS011;10082;51.038;6.992;2022-12-18T06:10:56;9.47;;;8.67;;
19842;SDS011;10082;51.038;6.992;2022-12-18T06:13:25;9.93;;;9.07;;
19842;SDS011;10082;51.038;6.992;2022-12-18T06:15:52;9.87;;;8.97;;
19842;SDS011;10082;51.038;6.992;2022-12-18T06:18:19;10.50;;;9.50;;
19842;SDS011;10082;51.038;6.992;2022-12-18T06:20:53;9.77;;;8.90;;
19842;SDS011;10082;51.038;6.992;2022-12-18T06:23:22;10.00;;;9.10;;
19842;SDS011;10082;51.038;6.992;2022-12-18T06:25:48;9.40;;;8.60;;
19842;SDS011;10082;51.038;6.992;2022-12-18T06:28:15;10.20;;;9.30;;
19842;SDS011;10082;51.038;6.992;2022-12-18T06:30:44;10.40;;;9.43;;
19842;SDS011;10082;51.038;6.992;2022-12-18T06:33:11;10.20;;;9.30;;
19842;SDS011;10082;51.038;6.992;2022-12-18T06:35:38;10.53;;;9.63;;
19842;SDS011;10082;51.038;6.992;2022-12-18T06:38:05;9.90;;;9.00;;
19842;SDS011;10082;51.038;6.992;2022-12-18T06:40:32;10.37;;;9.47;;
19842;SDS011;10082;51.038;6.992;2022-12-18T06:43:00;10.70;;;9.70;;
19842;SDS011;10082;51.038;6.992;2022-12-18T06:45:27;10.30;;;9.40;;
19842;SDS011;10082;51.038;6.992;2022-12-18T06:47:56;10.40;;;9.40;;
19842;SDS011;10082;51.038;6.992;2022-12-18T06:50:23;10.20;;;9.30;;
19842;SDS011;10082;51.038;6.992;2022-12-18T06:52:50;10.87;;;9.83;;
19842;SDS011;10082;51.038;6.992;2022-12-18T06:55:17;10.20;;;9.30;;
19842;SDS011;10082;51.038;6.992;2022-12-18T06:57:44;10.80;;;9.80;;
19842;SDS011;10082;51.038;6.992;2022-12-18T07:00:11;10.07;;;9.20;;
19842;SDS011;10082;51.038;6.992;2022-12-18T07:02:39;10.27;;;9.47;;
19842;SDS011;10082;51.038;6.992;2022-12-18T07:05:08;11.70;;;10.67;;
19842;SDS011;10082;51.038;6.992;2022-12-18T07:07:35;10.50;;;9.50;;
19842;SDS011;10082;51.038;6.992;2022-12-18T07:10:02;11.17;;;10.17;;
19842;SDS011;10082;51.038;6.992;2022-12-18T07:12:29;11.17;;;10.17;;
19842;SDS011;10082;51.038;6.992;2022-12-18T07:14:56;10.20;;;9.30;;
19842;SDS011;10082;51.038;6.992;2022-12-18T07:17:23;11.70;;;10.60;;
19842;SDS011;10082;51.038;6.992;2022-12-18T07:19:50;10.47;;;9.53;;
19842;SDS011;10082;51.038;6.992;2022-12-18T07:22:19;11.00;;;10.00;;
19842;SDS011;10082;51.038;6.992;2022-12-18T07:24:46;11.00;;;10.03;;
19842;SDS011;10082;51.038;6.992;2022-12-18T07:27:15;11.10;;;10.10;;
19842;SDS011;10082;51.038;6.992;2022-12-18T07:29:43;11.67;;;10.57;;
19842;SDS011;10082;51.038;6.992;2022-12-18T07:32:09;11.40;;;10.40;;
19842;SDS011;10082;51.038;6.992;2022-12-18T07:34:36;10.87;;;9.90;;
19842;SDS011;10082;51.038;6.992;2022-12-18T07:37:03;11.10;;;10.10;;
19842;SDS011;10082;51.038;6.992;2022-12-18T07:39:32;11.57;;;10.57;;
19842;SDS011;10082;51.038;6.992;2022-12-18T07:41:59;11.40;;;10.40;;
19842;SDS011;10082;51.038;6.992;2022-12-18T07:44:43;11.50;;;10.40;;
19842;SDS011;10082;51.038;6.992;2022-12-18T07:47:10;11.17;;;10.17;;
19842;SDS011;10082;51.038;6.992;2022-12-18T07:49:37;11.37;;;10.37;;
19842;SDS011;10082;51.038;6.992;2022-12-18T07:52:04;11.10;;;10.20;;
19842;SDS011;10082;51.038;6.992;2022-12-18T07:54:33;12.33;;;11.23;;
19842;SDS011;10082;51.038;6.992;2022-12-18T07:57:00;10.80;;;9.80;;
19842;SDS011;10082;51.038;6.992;2022-12-18T07:59:27;11.00;;;10.10;;
19842;SDS011;10082;51.038;6.992;2022-12-18T08:01:54;11.87;;;10.80;;
19842;SDS011;10082;51.038;6.992;2022-12-18T08:04:21;11.13;;;10.20;;
19842;SDS011;10082;51.038;6.992;2022-12-18T08:06:48;11.67;;;10.60;;
19842;SDS011;10082;51.038;6.992;2022-12-18T08:09:15;11.67;;;10.67;;
19842;SDS011;10082;51.038;6.992;2022-12-18T08:11:44;11.80;;;10.80;;
19842;SDS011;10082;51.038;6.992;2022-12-18T08:14:11;12.10;;;11.00;;
19842;SDS011;10082;51.038;6.992;2022-12-18T08:16:39;11.63;;;10.63;;
19842;SDS011;10082;51.038;6.992;2022-12-18T08:19:05;10.73;;;9.83;;
19842;SDS011;10082;51.038;6.992;2022-12-18T08:21:32;11.37;;;10.37;;
19842;SDS011;10082;51.038;6.992;2022-12-18T08:24:00;11.47;;;10.43;;
19842;SDS011;10082;51.038;6.992;2022-12-18T08:26:28;11.03;;;9.93;;
19842;SDS011;10082;51.038;6.992;2022-12-18T08:28:58;10.50;;;9.60;;
19842;SDS011;10082;51.038;6.992;2022-12-18T08:31:26;10.90;;;9.93;;
19842;SDS011;10082;51.038;6.992;2022-12-18T08:33:55;10.87;;;9.87;;
19842;SDS011;10082;51.038;6.992;2022-12-18T08:36:23;10.27;;;9.37;;
19842;SDS011;10082;51.038;6.992;2022-12-18T08:38:51;10.93;;;9.93;;
19842;SDS011;10082;51.038;6.992;2022-12-18T08:41:18;10.50;;;9.60;;
19842;SDS011;10082;51.038;6.992;2022-12-18T08:43:46;10.60;;;9.70;;
19842;SDS011;10082;51.038;6.992;2022-12-18T08:46:35;10.60;;;9.70;;
19842;SDS011;10082;51.038;6.992;2022-12-18T08:49:04;10.73;;;9.73;;
19842;SDS011;10082;51.038;6.992;2022-12-18T08:51:32;10.83;;;9.93;;
19842;SDS011;10082;51.038;6.992;2022-12-18T08:53:59;10.30;;;9.40;;
19842;SDS011;10082;51.038;6.992;2022-12-18T08:56:26;10.47;;;9.57;;
19842;SDS011;10082;51.038;6.992;2022-12-18T08:58:55;10.63;;;9.63;;
19842;SDS011;10082;51.038;6.992;2022-12-18T09:01:22;10.27;;;9.37;;
19842;SDS011;10082;51.038;6.992;2022-12-18T09:03:51;10.27;;;9.37;;
19842;SDS011;10082;51.038;6.992;2022-12-18T09:06:19;9.03;;;8.20;;
19842;SDS011;10082;51.038;6.992;2022-12-18T09:08:47;9.77;;;8.87;;
19842;SDS011;10082;51.038;6.992;2022-12-18T09:11:15;9.37;;;8.40;;
19842;SDS011;10082;51.038;6.992;2022-12-18T09:13:46;9.37;;;8.43;;
19842;SDS011;10082;51.038;6.992;2022-12-18T09:16:13;9.10;;;8.27;;
19842;SDS011;10082;51.038;6.992;2022-12-18T09:18:40;9.90;;;8.83;;
19842;SDS011;10082;51.038;6.992;2022-12-18T09:21:09;9.30;;;8.50;;
19842;SDS011;10082;51.038;6.992;2022-12-18T09:23:37;9.23;;;8.37;;
19842;SDS011;10082;51.038;6.992;2022-12-18T09:26:04;9.10;;;8.30;;
19842;SDS011;10082;51.038;6.992;2022-12-18T09:28:31;9.10;;;8.20;;
19842;SDS011;10082;51.038;6.992;2022-12-18T09:30:58;9.03;;;8.13;;
19842;SDS011;10082;51.038;6.992;2022-12-18T09:33:29;9.30;;;8.43;;
19842;SDS011;10082;51.038;6.992;2022-12-18T09:35:56;9.23;;;8.43;;
19842;SDS011;10082;51.038;6.992;2022-12-18T09:38:25;9.33;;;8.43;;
19842;SDS011;10082;51.038;6.992;2022-12-18T09:40:53;8.87;;;8.07;;
19842;SDS011;10082;51.038;6.992;2022-12-18T09:43:26;8.93;;;8.13;;
19842;SDS011;10082;51.038;6.992;2022-12-18T09:46:01;9.23;;;8.43;;
19842;SDS011;10082;51.038;6.992;2022-12-18T09:48:32;8.13;;;7.43;;
19842;SDS011;10082;51.038;6.992;2022-12-18T09:51:05;8.97;;;8.17;;
19842;SDS011;10082;51.038;6.992;2022-12-18T09:53:42;8.47;;;7.67;;
19842;SDS011;10082;51.038;6.992;2022-12-18T09:56:15;8.80;;;8.00;;
19842;SDS011;10082;51.038;6.992;2022-12-18T09:58:48;8.27;;;7.43;;
19842;SDS011;10082;51.038;6.992;2022-12-18T10:01:22;8.00;;;7.30;;
19842;SDS011;10082;51.038;6.992;2022-12-18T10:03:50;7.67;;;6.97;;
19842;SDS011;10082;51.038;6.992;2022-12-18T10:06:20;8.10;;;7.30;;
19842;SDS011;10082;51.038;6.992;2022-12-18T10:11:39;8.60;;;7.80;;
19842;SDS011;10082;51.038;6.992;2022-12-18T10:14:15;7.97;;;7.23;;
19842;SDS011;10082;51.038;6.992;2022-12-18T10:16:51;7.37;;;6.67;;
19842;SDS011;10082;51.038;6.992;2022-12-18T10:19:32;8.27;;;7.37;;
19842;SDS011;10082;51.038;6.992;2022-12-18T10:22:10;8.03;;;7.23;;
19842;SDS011;10082;51.038;6.992;2022-12-18T10:24:46;7.63;;;6.93;;
19842;SDS011;10082;51.038;6.992;2022-12-18T10:27:21;7.47;;;6.70;;
19842;SDS011;10082;51.038;6.992;2022-12-18T10:29:51;7.50;;;6.80;;
19842;SDS011;10082;51.038;6.992;2022-12-18T10:32:20;7.83;;;7.03;;
19842;SDS011;10082;51.038;6.992;2022-12-18T10:34:50;7.30;;;6.57;;
19842;SDS011;10082;51.038;6.992;2022-12-18T10:37:20;7.30;;;6.60;;
19842;SDS011;10082;51.038;6.992;2022-12-18T10:40:06;7.43;;;6.63;;
19842;SDS011;10082;51.038;6.992;2022-12-18T10:42:38;7.93;;;7.13;;
19842;SDS011;10082;51.038;6.992;2022-12-18T10:45:09;7.87;;;7.07;;
19842;SDS011;10082;51.038;6.992;2022-12-18T10:47:41;7.97;;;7.17;;
19842;SDS011;10082;51.038;6.992;2022-12-18T10:50:17;7.70;;;6.90;;
19842;SDS011;10082;51.038;6.992;2022-12-18T10:52:52;7.70;;;6.80;;
19842;SDS011;10082;51.038;6.992;2022-12-18T10:55:23;7.70;;;7.00;;
19842;SDS011;10082;51.038;6.992;2022-12-18T10:57:53;8.97;;;7.13;;
19842;SDS011;10082;51.038;6.992;2022-12-18T11:00:25;8.20;;;7.13;;
19842;SDS011;10082;51.038;6.992;2022-12-18T11:02:54;7.97;;;6.17;;
19842;SDS011;10082;51.038;6.992;2022-12-18T11:05:26;7.57;;;6.57;;
19842;SDS011;10082;51.038;6.992;2022-12-18T11:07:55;7.50;;;6.47;;
19842;SDS011;10082;51.038;6.992;2022-12-18T11:10:25;7.33;;;6.63;;
19842;SDS011;10082;51.038;6.992;2022-12-18T11:12:55;8.17;;;7.37;;
19842;SDS011;10082;51.038;6.992;2022-12-18T11:15:24;7.90;;;7.07;;
19842;SDS011;10082;51.038;6.992;2022-12-18T11:17:56;8.10;;;7.30;;
19842;SDS011;10082;51.038;6.992;2022-12-18T11:20:27;7.87;;;7.10;;
19842;SDS011;10082;51.038;6.992;2022-12-18T11:22:58;8.23;;;7.40;;
19842;SDS011;10082;51.038;6.992;2022-12-18T11:25:28;8.83;;;7.70;;
19842;SDS011;10082;51.038;6.992;2022-12-18T11:27:57;8.60;;;7.70;;
19842;SDS011;10082;51.038;6.992;2022-12-18T11:30:26;8.40;;;7.30;;
19842;SDS011;10082;51.038;6.992;2022-12-18T11:32:59;8.57;;;7.20;;
19842;SDS011;10082;51.038;6.992;2022-12-18T11:35:40;8.80;;;7.83;;
19842;SDS011;10082;51.038;6.992;2022-12-18T11:38:17;10.07;;;7.97;;
19842;SDS011;10082;51.038;6.992;2022-12-18T11:40:51;7.83;;;7.03;;
19842;SDS011;10082;51.038;6.992;2022-12-18T11:43:25;9.97;;;7.63;;
19842;SDS011;10082;51.038;6.992;2022-12-18T11:45:55;8.00;;;7.23;;
19842;SDS011;10082;51.038;6.992;2022-12-18T11:48:27;9.37;;;7.30;;
19842;SDS011;10082;51.038;6.992;2022-12-18T11:50:57;8.60;;;7.70;;
19842;SDS011;10082;51.038;6.992;2022-12-18T11:53:26;8.73;;;7.83;;
19842;SDS011;10082;51.038;6.992;2022-12-18T11:56:03;8.57;;;7.67;;
19842;SDS011;10082;51.038;6.992;2022-12-18T11:58:46;9.77;;;8.37;;
19842;SDS011;10082;51.038;6.992;2022-12-18T12:01:20;9.17;;;8.07;;
19842;SDS011;10082;51.038;6.992;2022-12-18T12:04:10;9.97;;;8.40;;
19842;SDS011;10082;51.038;6.992;2022-12-18T12:06:52;10.30;;;8.37;;
19842;SDS011;10082;51.038;6.992;2022-12-18T12:09:31;11.23;;;8.10;;
19842;SDS011;10082;51.038;6.992;2022-12-18T12:12:10;9.00;;;7.57;;
19842;SDS011;10082;51.038;6.992;2022-12-18T12:14:50;8.60;;;7.70;;
19842;SDS011;10082;51.038;6.992;2022-12-18T12:17:29;9.57;;;8.40;;
19842;SDS011;10082;51.038;6.992;2022-12-18T12:20:06;9.37;;;8.23;;
19842;SDS011;10082;51.038;6.992;2022-12-18T12:22:43;10.03;;;8.97;;
19842;SDS011;10082;51.038;6.992;2022-12-18T12:25:22;8.63;;;7.73;;
19842;SDS011;10082;51.038;6.992;2022-12-18T12:28:01;9.60;;;8.60;;
19842;SDS011;10082;51.038;6.992;2022-12-18T12:30:40;9.23;;;8.30;;
19842;SDS011;10082;51.038;6.992;2022-12-18T12:33:23;11.33;;;8.83;;
19842;SDS011;10082;51.038;6.992;2022-12-18T12:36:05;10.57;;;9.07;;
19842;SDS011;10082;51.038;6.992;2022-12-18T12:38:40;10.20;;;8.70;;
19842;SDS011;10082;51.038;6.992;2022-12-18T12:41:12;11.23;;;8.70;;
19842;SDS011;10082;51.038;6.992;2022-12-18T12:43:57;9.97;;;8.97;;
19842;SDS011;10082;51.038;6.992;2022-12-18T12:46:26;10.37;;;9.20;;
19842;SDS011;10082;51.038;6.992;2022-12-18T12:48:56;10.63;;;8.73;;
19842;SDS011;10082;51.038;6.992;2022-12-18T12:51:27;11.53;;;9.77;;
19842;SDS011;10082;51.038;6.992;2022-12-18T12:53:56;10.53;;;9.43;;
19842;SDS011;10082;51.038;6.992;2022-12-18T12:56:25;11.73;;;9.27;;
19842;SDS011;10082;51.038;6.992;2022-12-18T12:59:08;10.73;;;8.83;;
19842;SDS011;10082;51.038;6.992;2022-12-18T13:01:41;12.47;;;10.27;;
19842;SDS011;10082;51.038;6.992;2022-12-18T13:04:21;12.43;;;9.87;;
19842;SDS011;10082;51.038;6.992;2022-12-18T13:06:57;11.70;;;9.97;;
19842;SDS011;10082;51.038;6.992;2022-12-18T13:09:31;11.70;;;9.90;;
19842;SDS011;10082;51.038;6.992;2022-12-18T13:12:01;11.63;;;9.93;;
19842;SDS011;10082;51.038;6.992;2022-12-18T13:14:48;11.10;;;9.97;;
19842;SDS011;10082;51.038;6.992;2022-12-18T13:17:16;10.13;;;9.07;;
19842;SDS011;10082;51.038;6.992;2022-12-18T13:20:04;12.20;;;10.67;;
19842;SDS011;10082;51.038;6.992;2022-12-18T13:22:34;12.47;;;10.70;;
19842;SDS011;10082;51.038;6.992;2022-12-18T13:28:00;11.00;;;9.67;;
19842;SDS011;10082;51.038;6.992;2022-12-18T13:30:49;11.90;;;10.47;;
19842;SDS011;10082;51.038;6.992;2022-12-18T13:36:16;13.63;;;10.50;;
19842;SDS011;10082;51.038;6.992;2022-12-18T13:45:37;12.07;;;10.13;;
19842;SDS011;10082;51.038;6.992;2022-12-18T13:50:57;11.90;;;10.07;;
19842;SDS011;10082;51.038;6.992;2022-12-18T13:53:28;11.90;;;10.40;;
19842;SDS011;10082;51.038;6.992;2022-12-18T13:55:59;12.43;;;10.70;;
19842;SDS011;10082;51.038;6.992;2022-12-18T13:58:28;12.37;;;11.10;;
19842;SDS011;10082;51.038;6.992;2022-12-18T14:00:55;11.87;;;10.67;;
19842;SDS011;10082;51.038;6.992;2022-12-18T14:03:24;14.43;;;10.47;;
19842;SDS011;10082;51.038;6.992;2022-12-18T14:06:00;12.60;;;10.53;;
19842;SDS011;10082;51.038;6.992;2022-12-18T14:08:36;11.60;;;10.37;;
19842;SDS011;10082;51.038;6.992;2022-12-18T14:11:05;12.50;;;11.23;;
19842;SDS011;10082;51.038;6.992;2022-12-18T14:13:35;12.73;;;10.83;;
19842;SDS011;10082;51.038;6.992;2022-12-18T14:16:04;12.93;;;11.50;;
19842;SDS011;10082;51.038;6.992;2022-12-18T14:18:37;12.20;;;10.87;;
19842;SDS011;10082;51.038;6.992;2022-12-18T14:21:15;14.23;;;11.73;;
19842;SDS011;10082;51.038;6.992;2022-12-18T14:23:45;11.70;;;10.27;;
19842;SDS011;10082;51.038;6.992;2022-12-18T14:26:25;13.70;;;11.17;;
19842;SDS011;10082;51.038;6.992;2022-12-18T14:28:54;14.30;;;11.40;;
19842;SDS011;10082;51.038;6.992;2022-12-18T14:31:22;13.13;;;11.33;;
19842;SDS011;10082;51.038;6.992;2022-12-18T14:33:51;12.03;;;10.73;;
19842;SDS011;10082;51.038;6.992;2022-12-18T14:36:21;12.33;;;11.03;;
19842;SDS011;10082;51.038;6.992;2022-12-18T14:38:50;14.20;;;12.17;;
19842;SDS011;10082;51.038;6.992;2022-12-18T14:41:19;12.97;;;11.33;;
19842;SDS011;10082;51.038;6.992;2022-12-18T14:43:48;12.80;;;11.50;;
19842;SDS011;10082;51.038;6.992;2022-12-18T14:46:27;12.80;;;11.03;;
19842;SDS011;10082;51.038;6.992;2022-12-18T14:48:57;13.80;;;10.43;;
19842;SDS011;10082;51.038;6.992;2022-12-18T14:51:27;12.47;;;10.60;;
19842;SDS011;10082;51.038;6.992;2022-12-18T14:53:58;13.80;;;11.03;;
19842;SDS011;10082;51.038;6.992;2022-12-18T14:56:27;13.27;;;11.50;;
19842;SDS011;10082;51.038;6.992;2022-12-18T14:58:56;12.43;;;11.03;;
19842;SDS011;10082;51.038;6.992;2022-12-18T15:01:26;14.07;;;11.50;;
19842;SDS011;10082;51.038;6.992;2022-12-18T15:03:56;13.03;;;11.43;;
19842;SDS011;10082;51.038;6.992;2022-12-18T15:06:33;13.10;;;11.63;;
19842;SDS011;10082;51.038;6.992;2022-12-18T15:09:03;14.03;;;12.53;;
19842;SDS011;10082;51.038;6.992;2022-12-18T15:11:33;14.90;;;12.33;;
19842;SDS011;10082;51.038;6.992;2022-12-18T15:16:58;14.13;;;11.60;;
19842;SDS011;10082;51.038;6.992;2022-12-18T15:19:28;13.00;;;11.60;;
19842;SDS011;10082;51.038;6.992;2022-12-18T15:22:03;14.27;;;11.93;;